Hlavní strana
METAR-TAF:

METAR-TAF

Letiště :

Deline, Severozápadní teritoria, Kanada

zeměpisná šířka: 65-12N, zeměpisná délka: 123-26W, výška: 176 m

Aktuální stav počasí

Zpráva byla vytvořena před 40 minutami, v 20:00 UTC
Severoseverozápadní vítr 7 kt, proměnlivý mezi západním a severním
Teplota 9°C
Vlhkost vzduchu 40%
Tlak 1003 hPa
Viditelnost: 64.4 km
Skoro jasno ve výšce 8500 ft
Polojasno ve výšce 9500 ft
Oblačno až skoro zataženo ve výšce 11000 ft
Oblačno až skoro zataženo ve výšce 20000 ft

METAR: CYWJ 232000Z 33007KT 280V350 40SM FEW085 SCT095 BKN110 BKN200 09/M04 A2961 RMK AS2AS2AS2CS1 SLP042

Čas: 14:40 (20:40 UTC)

Předpověď počasí

Zpráva byla vytvořena před 27 hodinami a 1 minutami, v 17:39 UTC
Předpověď platná od 22 v 18 UTC do 22 v 23 UTC
Východní vítr 7 kt
Viditelnost: 10 km
Skoro jasno ve výšce 11000 ft
Polojasno ve výšce 22000 ft

TAF: CYWJ 221739Z 2218/2223 10007KT P6SM FEW110 SCT220 RMK NXT FCST WILL BE ISSUED AT 241415Z

Stav a předpovědi počasí z více než 4 000 letišť (zprávy METAR a TAF).

Červené a žluté tečky na mapě představují dostupné meteorologické stanice.

Když kurzor umístíte na tečku, zobrazí se název stanice.

Pak kliknutím zobrazíte stav a předpověď počasí.

Chcete-li změnit mapu, kliknutím na zelené tlačítko se znaménkem +mapu přiblížíte, kliknutím na zelené tlačítko se znaménkem – mapu oddálíte a kliknutím na zelené šipky přejdete na sousední mapy.


METAR-TAF: